createdAt,value
2018-12-04T11:15:07.912Z,2.90
2018-12-04T11:17:37.656Z,2.87
2018-12-04T11:20:09.936Z,4.10
2018-12-04T11:23:07.301Z,2.77
2018-12-04T11:25:58.719Z,3.10
2018-12-04T11:34:11.867Z,3.10
2018-12-04T11:36:43.149Z,2.90
2018-12-04T11:39:12.861Z,3.03
2018-12-04T11:41:44.256Z,2.47
2018-12-04T11:44:14.782Z,2.53
2018-12-04T11:46:44.531Z,2.23
2018-12-04T11:49:14.308Z,2.43
2018-12-04T11:51:45.502Z,2.77
2018-12-04T11:54:15.167Z,2.47
2018-12-04T11:56:45.353Z,3.03
2018-12-04T11:59:15.087Z,2.60
2018-12-04T12:01:46.851Z,2.50
2018-12-04T12:04:17.038Z,3.10
2018-12-04T12:06:48.391Z,3.03
2018-12-04T12:09:20.994Z,2.87
2018-12-04T12:11:52.079Z,2.70
2018-12-04T12:14:21.771Z,2.83
2018-12-04T12:16:52.990Z,2.47
2018-12-04T12:19:22.733Z,2.70
2018-12-04T12:21:53.137Z,3.50
2018-12-04T12:24:22.899Z,2.30
2018-12-04T12:26:54.892Z,3.07
2018-12-04T12:29:24.605Z,2.83
2018-12-04T12:31:54.644Z,2.67
2018-12-04T12:34:24.374Z,3.00
2018-12-04T12:36:56.767Z,2.97
2018-12-04T12:39:26.562Z,3.13
2018-12-04T12:41:56.959Z,2.57
2018-12-04T12:44:26.632Z,2.40
2018-12-04T12:46:56.367Z,3.17
2018-12-04T12:49:26.040Z,2.20
2018-12-04T12:51:56.004Z,2.53
2018-12-04T12:54:25.750Z,2.50
2018-12-04T12:56:57.557Z,2.90
2018-12-04T13:05:11.103Z,3.00
2018-12-04T13:07:43.454Z,1.90
2018-12-04T13:10:13.340Z,2.47
2018-12-04T13:12:44.312Z,2.10
2018-12-04T13:15:14.101Z,2.40
2018-12-04T13:17:45.254Z,2.47
2018-12-04T13:20:15.526Z,2.50
2018-12-04T13:22:45.220Z,2.30
2018-12-04T13:25:14.924Z,2.67
2018-12-04T13:27:45.693Z,2.60
2018-12-04T13:30:15.534Z,2.80
2018-12-04T13:32:45.964Z,2.80
2018-12-04T13:35:15.980Z,2.30
2018-12-04T13:37:45.723Z,2.40
2018-12-04T13:40:15.497Z,2.53
2018-12-04T13:42:46.387Z,2.80
2018-12-04T13:45:16.075Z,2.47
2018-12-04T13:47:46.622Z,2.07
2018-12-04T13:50:16.421Z,2.40
2018-12-04T13:52:46.082Z,2.23
2018-12-04T13:55:15.821Z,2.57
2018-12-04T13:57:50.668Z,2.30
2018-12-04T14:00:16.219Z,2.17
2018-12-04T14:03:05.302Z,2.67
2018-12-04T14:05:35.212Z,2.87
2018-12-04T14:08:05.303Z,2.00
2018-12-04T14:10:35.019Z,2.30
2018-12-04T14:13:06.043Z,2.73
2018-12-04T14:15:35.776Z,2.27
2018-12-04T14:18:05.525Z,2.43
2018-12-04T14:20:36.002Z,2.83
2018-12-04T14:23:05.765Z,2.57
2018-12-04T14:25:35.477Z,2.83
2018-12-04T14:28:05.240Z,2.17
2018-12-04T14:30:38.000Z,2.97
2018-12-04T14:33:07.765Z,2.83
2018-12-04T14:35:37.467Z,2.73
2018-12-04T14:42:26.563Z,8.43
2018-12-04T14:45:19.085Z,2.53
2018-12-04T14:47:53.989Z,3.50
2018-12-04T14:51:07.304Z,4.17
2018-12-04T14:53:39.792Z,2.87
2018-12-04T15:00:00.034Z,2.63
2018-12-04T15:02:42.780Z,2.40
2018-12-04T15:05:21.992Z,2.77
2018-12-04T15:07:59.826Z,2.63
2018-12-04T15:10:37.358Z,3.17
2018-12-04T15:13:31.867Z,3.33
2018-12-04T15:16:12.413Z,2.53
2018-12-04T15:23:13.302Z,2.23
2018-12-04T15:25:44.914Z,2.63
2018-12-04T15:28:18.372Z,3.30
2018-12-04T15:30:48.471Z,2.50
2018-12-04T15:33:19.026Z,2.83
2018-12-04T15:35:49.235Z,2.80
2018-12-04T15:38:19.656Z,2.47
2018-12-04T15:40:49.426Z,2.87
2018-12-04T15:43:20.721Z,2.53
2018-12-04T15:45:51.418Z,2.10
2018-12-04T15:52:30.804Z,2.67
2018-12-04T15:55:50.216Z,2.90
2018-12-04T15:58:19.864Z,2.57
2018-12-04T16:01:01.388Z,2.90
2018-12-04T16:03:32.116Z,2.90
2018-12-04T16:06:44.373Z,2.47
2018-12-04T16:09:16.399Z,4.03
2018-12-04T16:11:48.230Z,2.90
2018-12-04T16:14:19.958Z,3.73
2018-12-04T16:16:49.722Z,3.97
2018-12-04T16:19:19.494Z,7.47
2018-12-04T16:21:49.486Z,10.63
2018-12-04T16:24:19.155Z,12.37
2018-12-04T16:26:49.278Z,10.27
2018-12-04T16:29:18.925Z,9.90
2018-12-04T16:31:48.680Z,11.07
2018-12-04T16:34:18.383Z,22.30
2018-12-04T16:36:48.637Z,9.27
2018-12-04T16:39:18.305Z,13.67
2018-12-04T16:41:48.488Z,10.70
2018-12-04T16:44:46.829Z,10.17
2018-12-04T16:55:12.509Z,14.23
2018-12-04T17:01:02.566Z,6.53
2018-12-04T17:03:43.845Z,9.27
2018-12-04T17:06:25.206Z,6.87
2018-12-04T17:09:07.164Z,6.00
2018-12-04T17:11:48.131Z,8.70
2018-12-04T17:14:31.396Z,11.07
2018-12-04T17:17:12.806Z,24.00
2018-12-04T17:19:54.919Z,8.43
2018-12-04T17:22:38.077Z,6.37
2018-12-04T17:25:19.915Z,5.37
2018-12-04T17:28:02.672Z,6.63
2018-12-04T17:30:44.954Z,2.67
2018-12-04T17:36:27.635Z,3.53
2018-12-04T17:39:03.489Z,5.87
2018-12-04T17:41:33.899Z,4.63
2018-12-04T17:44:03.868Z,4.07
2018-12-04T17:46:33.875Z,3.80
2018-12-04T17:49:03.586Z,3.73
2018-12-04T17:51:33.324Z,3.60
2018-12-04T17:54:03.020Z,3.27
2018-12-04T17:56:32.746Z,3.40
2018-12-04T17:59:02.629Z,2.60
2018-12-04T18:01:35.855Z,2.93
2018-12-04T18:04:15.127Z,3.07
2018-12-04T18:06:47.668Z,3.43
2018-12-04T18:09:47.124Z,3.50
2018-12-04T18:12:16.795Z,3.47
2018-12-04T18:14:47.361Z,5.33
2018-12-04T18:17:17.256Z,14.60
2018-12-04T18:19:46.963Z,6.10
2018-12-04T18:22:16.722Z,8.03
2018-12-04T18:24:47.093Z,15.73
2018-12-04T18:27:17.032Z,13.50
2018-12-04T18:29:47.725Z,12.87
2018-12-04T18:32:17.480Z,11.37
2018-12-04T18:34:47.229Z,20.93
2018-12-04T18:37:22.694Z,8.33
2018-12-04T18:39:52.693Z,6.80
2018-12-04T18:42:22.403Z,6.90
2018-12-04T18:44:52.238Z,10.93
2018-12-04T18:51:06.606Z,6.93
2018-12-04T18:53:36.257Z,6.30
2018-12-04T18:56:15.638Z,4.07
2018-12-04T18:58:53.634Z,4.90
2018-12-04T19:01:31.729Z,5.27
2018-12-04T19:04:11.005Z,3.97
2018-12-04T19:06:51.382Z,4.00
2018-12-04T19:09:20.958Z,3.60
2018-12-04T19:11:50.367Z,3.20
2018-12-04T19:14:19.723Z,3.67
2018-12-04T19:16:49.116Z,3.23
2018-12-04T19:19:26.817Z,2.70
2018-12-04T19:21:57.799Z,4.50
2018-12-04T19:24:30.799Z,3.17
2018-12-04T19:27:00.321Z,3.37
2018-12-04T19:29:30.387Z,2.97
2018-12-04T19:31:59.890Z,3.13
2018-12-04T19:34:29.608Z,3.20
2018-12-04T19:36:58.877Z,3.43
2018-12-04T19:39:28.169Z,2.83
2018-12-04T19:41:57.458Z,3.53
2018-12-04T19:44:26.935Z,3.43
2018-12-04T19:46:56.987Z,3.40
2018-12-04T19:49:26.730Z,2.80
2018-12-04T19:51:55.984Z,2.40
2018-12-04T19:54:25.257Z,3.40
2018-12-04T19:56:54.826Z,3.00
2018-12-04T19:59:24.171Z,3.80
2018-12-04T20:01:53.598Z,3.43
2018-12-04T20:04:24.240Z,2.80
2018-12-04T20:06:55.466Z,2.97
2018-12-04T20:09:28.262Z,3.57
2018-12-04T20:11:58.309Z,3.23
2018-12-04T20:14:27.736Z,3.10
2018-12-04T20:16:57.050Z,2.70
2018-12-04T20:19:28.382Z,3.50
2018-12-04T20:21:58.747Z,2.50
2018-12-04T20:24:28.155Z,3.60
2018-12-04T20:26:57.502Z,3.07
2018-12-04T20:29:26.805Z,2.70
2018-12-04T20:31:56.225Z,3.00
2018-12-04T20:34:25.518Z,3.00
2018-12-04T20:36:54.837Z,3.03
2018-12-04T20:39:24.164Z,3.53
2018-12-04T20:41:54.097Z,2.73
2018-12-04T20:44:23.466Z,3.37
2018-12-04T20:46:53.322Z,2.53
2018-12-04T20:49:22.777Z,3.10
2018-12-04T20:51:52.856Z,2.70
2018-12-04T20:54:22.506Z,2.77
2018-12-04T20:56:53.472Z,2.93
2018-12-04T20:59:23.310Z,3.20
2018-12-04T21:01:53.275Z,3.17
2018-12-04T21:04:22.569Z,2.50
2018-12-04T21:06:52.223Z,2.80
2018-12-04T21:09:21.584Z,3.20
2018-12-04T21:11:51.828Z,2.77
2018-12-04T21:14:23.344Z,3.33
2018-12-04T21:16:54.248Z,3.13
2018-12-04T21:19:24.332Z,2.90
2018-12-04T21:21:54.761Z,3.03
2018-12-04T21:24:24.859Z,2.73
2018-12-04T21:26:55.713Z,3.77
2018-12-04T21:29:30.855Z,2.63
2018-12-04T21:32:07.279Z,3.23
2018-12-04T21:34:48.255Z,2.90
2018-12-04T21:37:19.165Z,3.20
2018-12-04T21:41:57.908Z,3.30
2018-12-04T21:44:32.926Z,2.70
2018-12-04T21:47:08.154Z,3.03
2018-12-04T21:49:37.633Z,3.10
2018-12-04T21:52:06.969Z,3.53
2018-12-04T21:54:36.287Z,2.43
2018-12-04T21:57:05.823Z,2.80
2018-12-04T21:59:35.877Z,2.83
2018-12-04T22:02:05.290Z,2.80
2018-12-04T22:04:34.604Z,2.77
2018-12-04T22:07:04.219Z,2.67
2018-12-04T22:09:33.689Z,2.47
2018-12-04T22:12:03.155Z,2.87
2018-12-04T22:14:32.546Z,2.57
2018-12-04T22:17:01.845Z,3.00
2018-12-04T22:19:31.180Z,2.87
2018-12-04T22:22:00.516Z,3.80
2018-12-04T22:24:30.418Z,2.70
2018-12-04T22:27:00.033Z,2.80
2018-12-04T22:29:29.638Z,3.33
2018-12-04T22:31:59.188Z,3.07
2018-12-04T22:34:29.179Z,3.23
2018-12-04T22:36:59.234Z,3.27
2018-12-04T22:39:28.905Z,2.60
2018-12-04T22:41:59.491Z,2.97
2018-12-04T22:44:29.388Z,2.57
2018-12-04T22:46:59.754Z,2.93
2018-12-04T22:49:29.456Z,3.00
2018-12-04T22:51:59.963Z,3.33
2018-12-04T22:54:29.587Z,2.80
2018-12-04T22:57:00.174Z,2.33
2018-12-04T22:59:29.819Z,2.83
2018-12-04T23:01:59.919Z,2.97
2018-12-04T23:04:29.647Z,3.17
2018-12-04T23:07:00.965Z,2.43
2018-12-04T23:09:31.020Z,2.77
2018-12-04T23:12:00.819Z,2.50
2018-12-04T23:14:30.486Z,2.50
2018-12-04T23:17:00.719Z,3.23
2018-12-04T23:19:30.415Z,3.17
2018-12-04T23:22:00.643Z,3.63
2018-12-04T23:24:30.262Z,2.97
2018-12-04T23:27:00.171Z,2.80
2018-12-04T23:29:29.821Z,3.20
2018-12-04T23:31:59.854Z,3.67
2018-12-04T23:34:29.449Z,3.43
2018-12-04T23:36:59.585Z,2.40
2018-12-04T23:39:29.164Z,2.93
2018-12-04T23:41:59.170Z,2.67
2018-12-04T23:44:28.798Z,2.83
2018-12-04T23:46:58.637Z,2.60
2018-12-04T23:49:28.266Z,3.13
2018-12-04T23:51:57.924Z,2.60
2018-12-04T23:54:27.549Z,2.93
2018-12-04T23:56:57.196Z,2.70
2018-12-04T23:59:26.836Z,3.03
